sensor_id;sensor_type;location;lat;lon;timestamp;P1;durP1;ratioP1;P2;durP2;ratioP2
80245;SDS011;69558;39.208;-77.226;2023-05-23T00:01:47;6.70;;;3.35;;
80245;SDS011;69558;39.208;-77.226;2023-05-23T00:04:14;5.10;;;3.05;;
80245;SDS011;69558;39.208;-77.226;2023-05-23T00:06:43;7.15;;;3.65;;
80245;SDS011;69558;39.208;-77.226;2023-05-23T00:09:12;6.72;;;3.72;;
80245;SDS011;69558;39.208;-77.226;2023-05-23T00:11:39;7.80;;;3.67;;
80245;SDS011;69558;39.208;-77.226;2023-05-23T00:14:11;5.90;;;3.65;;
80245;SDS011;69558;39.208;-77.226;2023-05-23T00:16:42;6.03;;;3.67;;
80245;SDS011;69558;39.208;-77.226;2023-05-23T00:19:09;7.32;;;3.67;;
80245;SDS011;69558;39.208;-77.226;2023-05-23T00:21:36;5.55;;;3.58;;
80245;SDS011;69558;39.208;-77.226;2023-05-23T00:24:04;5.75;;;3.30;;
80245;SDS011;69558;39.208;-77.226;2023-05-23T00:26:30;6.35;;;4.03;;
80245;SDS011;69558;39.208;-77.226;2023-05-23T00:28:57;6.72;;;3.88;;
80245;SDS011;69558;39.208;-77.226;2023-05-23T00:31:23;6.05;;;4.00;;
80245;SDS011;69558;39.208;-77.226;2023-05-23T00:33:49;6.00;;;3.72;;
80245;SDS011;69558;39.208;-77.226;2023-05-23T00:36:15;5.65;;;3.67;;
80245;SDS011;69558;39.208;-77.226;2023-05-23T00:38:42;6.25;;;3.65;;
80245;SDS011;69558;39.208;-77.226;2023-05-23T00:41:10;5.35;;;3.30;;
80245;SDS011;69558;39.208;-77.226;2023-05-23T00:43:36;6.13;;;3.63;;
80245;SDS011;69558;39.208;-77.226;2023-05-23T00:46:02;5.68;;;3.30;;
80245;SDS011;69558;39.208;-77.226;2023-05-23T00:48:29;6.28;;;3.60;;
80245;SDS011;69558;39.208;-77.226;2023-05-23T00:50:55;6.03;;;3.50;;
80245;SDS011;69558;39.208;-77.226;2023-05-23T00:53:21;5.22;;;3.53;;
80245;SDS011;69558;39.208;-77.226;2023-05-23T00:55:48;6.97;;;3.63;;
80245;SDS011;69558;39.208;-77.226;2023-05-23T00:58:14;6.22;;;3.65;;
80245;SDS011;69558;39.208;-77.226;2023-05-23T01:00:41;5.20;;;3.33;;
80245;SDS011;69558;39.208;-77.226;2023-05-23T01:03:09;5.70;;;3.70;;
80245;SDS011;69558;39.208;-77.226;2023-05-23T01:05:42;6.60;;;3.65;;
80245;SDS011;69558;39.208;-77.226;2023-05-23T01:08:09;5.75;;;3.38;;
80245;SDS011;69558;39.208;-77.226;2023-05-23T01:10:35;5.45;;;3.03;;
80245;SDS011;69558;39.208;-77.226;2023-05-23T01:16:01;5.60;;;3.05;;
80245;SDS011;69558;39.208;-77.226;2023-05-23T01:18:44;6.20;;;3.45;;
80245;SDS011;69558;39.208;-77.226;2023-05-23T01:21:18;6.05;;;3.60;;
80245;SDS011;69558;39.208;-77.226;2023-05-23T01:24:02;6.20;;;3.78;;
80245;SDS011;69558;39.208;-77.226;2023-05-23T01:27:00;5.40;;;3.28;;
80245;SDS011;69558;39.208;-77.226;2023-05-23T01:29:33;5.97;;;3.22;;
80245;SDS011;69558;39.208;-77.226;2023-05-23T01:32:04;5.50;;;3.38;;
80245;SDS011;69558;39.208;-77.226;2023-05-23T01:34:34;5.38;;;3.22;;
80245;SDS011;69558;39.208;-77.226;2023-05-23T01:37:00;5.22;;;3.38;;
80245;SDS011;69558;39.208;-77.226;2023-05-23T01:39:27;5.15;;;3.38;;
80245;SDS011;69558;39.208;-77.226;2023-05-23T01:41:53;5.18;;;3.25;;
80245;SDS011;69558;39.208;-77.226;2023-05-23T01:44:19;6.07;;;3.60;;
80245;SDS011;69558;39.208;-77.226;2023-05-23T01:46:46;6.00;;;3.50;;
80245;SDS011;69558;39.208;-77.226;2023-05-23T01:49:12;6.18;;;3.72;;
80245;SDS011;69558;39.208;-77.226;2023-05-23T01:51:41;5.90;;;3.78;;
80245;SDS011;69558;39.208;-77.226;2023-05-23T01:54:08;4.88;;;3.10;;
80245;SDS011;69558;39.208;-77.226;2023-05-23T01:56:34;6.18;;;3.47;;
80245;SDS011;69558;39.208;-77.226;2023-05-23T01:59:00;5.38;;;3.33;;
80245;SDS011;69558;39.208;-77.226;2023-05-23T02:01:27;6.57;;;3.75;;
80245;SDS011;69558;39.208;-77.226;2023-05-23T02:03:54;6.45;;;4.28;;
80245;SDS011;69558;39.208;-77.226;2023-05-23T02:06:20;4.80;;;3.15;;
80245;SDS011;69558;39.208;-77.226;2023-05-23T02:08:46;6.28;;;4.03;;
80245;SDS011;69558;39.208;-77.226;2023-05-23T02:11:11;5.55;;;3.58;;
80245;SDS011;69558;39.208;-77.226;2023-05-23T02:13:38;6.15;;;3.40;;
80245;SDS011;69558;39.208;-77.226;2023-05-23T02:16:03;6.00;;;3.95;;
80245;SDS011;69558;39.208;-77.226;2023-05-23T02:18:30;6.47;;;3.47;;
80245;SDS011;69558;39.208;-77.226;2023-05-23T02:20:55;5.80;;;3.67;;
80245;SDS011;69558;39.208;-77.226;2023-05-23T02:23:21;5.22;;;3.47;;
80245;SDS011;69558;39.208;-77.226;2023-05-23T02:25:47;5.95;;;3.80;;
80245;SDS011;69558;39.208;-77.226;2023-05-23T02:28:13;5.75;;;3.55;;
80245;SDS011;69558;39.208;-77.226;2023-05-23T02:30:40;6.18;;;3.70;;
80245;SDS011;69558;39.208;-77.226;2023-05-23T02:33:06;6.03;;;4.00;;
80245;SDS011;69558;39.208;-77.226;2023-05-23T02:35:32;5.78;;;3.60;;
80245;SDS011;69558;39.208;-77.226;2023-05-23T02:37:59;5.50;;;3.58;;
80245;SDS011;69558;39.208;-77.226;2023-05-23T02:40:25;5.13;;;3.45;;
80245;SDS011;69558;39.208;-77.226;2023-05-23T02:42:51;5.70;;;3.45;;
80245;SDS011;69558;39.208;-77.226;2023-05-23T02:45:17;5.60;;;3.83;;
80245;SDS011;69558;39.208;-77.226;2023-05-23T02:47:43;5.85;;;3.42;;
80245;SDS011;69558;39.208;-77.226;2023-05-23T02:50:09;5.85;;;3.75;;
80245;SDS011;69558;39.208;-77.226;2023-05-23T02:52:35;6.25;;;3.63;;
80245;SDS011;69558;39.208;-77.226;2023-05-23T02:55:02;5.63;;;3.38;;
80245;SDS011;69558;39.208;-77.226;2023-05-23T02:57:28;6.28;;;3.65;;
80245;SDS011;69558;39.208;-77.226;2023-05-23T02:59:54;6.20;;;3.58;;
80245;SDS011;69558;39.208;-77.226;2023-05-23T03:02:19;5.82;;;3.75;;
80245;SDS011;69558;39.208;-77.226;2023-05-23T03:04:46;6.00;;;3.80;;
80245;SDS011;69558;39.208;-77.226;2023-05-23T03:07:12;6.38;;;3.38;;
80245;SDS011;69558;39.208;-77.226;2023-05-23T03:09:39;5.55;;;3.55;;
80245;SDS011;69558;39.208;-77.226;2023-05-23T03:12:05;5.40;;;3.45;;
80245;SDS011;69558;39.208;-77.226;2023-05-23T03:14:31;6.20;;;3.80;;
80245;SDS011;69558;39.208;-77.226;2023-05-23T03:16:57;7.18;;;3.80;;
80245;SDS011;69558;39.208;-77.226;2023-05-23T03:19:23;6.07;;;3.60;;
80245;SDS011;69558;39.208;-77.226;2023-05-23T03:21:50;6.22;;;4.05;;
80245;SDS011;69558;39.208;-77.226;2023-05-23T03:24:17;6.22;;;3.72;;
80245;SDS011;69558;39.208;-77.226;2023-05-23T03:26:43;5.85;;;3.83;;
80245;SDS011;69558;39.208;-77.226;2023-05-23T03:29:09;5.57;;;3.42;;
80245;SDS011;69558;39.208;-77.226;2023-05-23T03:31:35;5.80;;;3.58;;
80245;SDS011;69558;39.208;-77.226;2023-05-23T03:34:02;6.00;;;3.35;;
80245;SDS011;69558;39.208;-77.226;2023-05-23T03:36:30;6.13;;;3.72;;
80245;SDS011;69558;39.208;-77.226;2023-05-23T03:38:59;5.75;;;3.70;;
80245;SDS011;69558;39.208;-77.226;2023-05-23T03:41:25;5.55;;;3.60;;
80245;SDS011;69558;39.208;-77.226;2023-05-23T03:43:51;5.35;;;3.15;;
80245;SDS011;69558;39.208;-77.226;2023-05-23T03:46:17;6.07;;;3.83;;
80245;SDS011;69558;39.208;-77.226;2023-05-23T03:48:44;5.30;;;3.22;;
80245;SDS011;69558;39.208;-77.226;2023-05-23T03:51:10;6.70;;;4.57;;
80245;SDS011;69558;39.208;-77.226;2023-05-23T03:53:37;7.03;;;4.03;;
80245;SDS011;69558;39.208;-77.226;2023-05-23T03:56:04;5.95;;;3.95;;
80245;SDS011;69558;39.208;-77.226;2023-05-23T03:58:30;6.35;;;4.10;;
80245;SDS011;69558;39.208;-77.226;2023-05-23T04:00:55;6.03;;;4.50;;
80245;SDS011;69558;39.208;-77.226;2023-05-23T04:03:22;6.60;;;3.67;;
80245;SDS011;69558;39.208;-77.226;2023-05-23T04:05:48;5.72;;;3.97;;
80245;SDS011;69558;39.208;-77.226;2023-05-23T04:08:14;5.63;;;3.63;;
80245;SDS011;69558;39.208;-77.226;2023-05-23T04:10:40;5.32;;;3.72;;
80245;SDS011;69558;39.208;-77.226;2023-05-23T04:13:06;5.95;;;3.45;;
80245;SDS011;69558;39.208;-77.226;2023-05-23T04:15:31;5.28;;;3.63;;
80245;SDS011;69558;39.208;-77.226;2023-05-23T04:17:58;6.32;;;3.70;;
80245;SDS011;69558;39.208;-77.226;2023-05-23T04:20:24;5.47;;;3.75;;
80245;SDS011;69558;39.208;-77.226;2023-05-23T04:22:50;5.55;;;3.55;;
80245;SDS011;69558;39.208;-77.226;2023-05-23T04:25:16;5.65;;;3.70;;
80245;SDS011;69558;39.208;-77.226;2023-05-23T04:27:43;6.20;;;3.85;;
80245;SDS011;69558;39.208;-77.226;2023-05-23T04:30:11;5.55;;;3.60;;
80245;SDS011;69558;39.208;-77.226;2023-05-23T04:32:38;5.60;;;3.60;;
80245;SDS011;69558;39.208;-77.226;2023-05-23T04:35:04;5.88;;;3.83;;
80245;SDS011;69558;39.208;-77.226;2023-05-23T04:37:30;5.40;;;3.47;;
80245;SDS011;69558;39.208;-77.226;2023-05-23T04:39:57;5.97;;;4.00;;
80245;SDS011;69558;39.208;-77.226;2023-05-23T04:42:26;6.07;;;3.85;;
80245;SDS011;69558;39.208;-77.226;2023-05-23T04:44:53;6.38;;;3.80;;
80245;SDS011;69558;39.208;-77.226;2023-05-23T04:47:22;5.78;;;3.72;;
80245;SDS011;69558;39.208;-77.226;2023-05-23T04:49:49;5.97;;;3.65;;
80245;SDS011;69558;39.208;-77.226;2023-05-23T04:52:18;5.20;;;3.58;;
80245;SDS011;69558;39.208;-77.226;2023-05-23T04:54:44;5.57;;;3.78;;
80245;SDS011;69558;39.208;-77.226;2023-05-23T04:57:12;5.63;;;3.55;;
80245;SDS011;69558;39.208;-77.226;2023-05-23T04:59:39;6.35;;;4.22;;
80245;SDS011;69558;39.208;-77.226;2023-05-23T05:02:06;6.10;;;3.72;;
80245;SDS011;69558;39.208;-77.226;2023-05-23T05:04:33;7.13;;;4.10;;
80245;SDS011;69558;39.208;-77.226;2023-05-23T05:07:00;5.82;;;3.80;;
80245;SDS011;69558;39.208;-77.226;2023-05-23T05:09:28;5.47;;;3.60;;
80245;SDS011;69558;39.208;-77.226;2023-05-23T05:11:58;5.80;;;3.92;;
80245;SDS011;69558;39.208;-77.226;2023-05-23T05:14:24;5.63;;;3.72;;
80245;SDS011;69558;39.208;-77.226;2023-05-23T05:16:51;5.63;;;3.55;;
80245;SDS011;69558;39.208;-77.226;2023-05-23T05:19:19;5.50;;;3.83;;
80245;SDS011;69558;39.208;-77.226;2023-05-23T05:21:46;6.80;;;4.28;;
80245;SDS011;69558;39.208;-77.226;2023-05-23T05:24:12;6.07;;;4.03;;
80245;SDS011;69558;39.208;-77.226;2023-05-23T05:26:37;6.25;;;3.58;;
80245;SDS011;69558;39.208;-77.226;2023-05-23T05:29:03;5.60;;;3.83;;
80245;SDS011;69558;39.208;-77.226;2023-05-23T05:31:30;5.78;;;4.00;;
80245;SDS011;69558;39.208;-77.226;2023-05-23T05:33:57;6.20;;;3.95;;
80245;SDS011;69558;39.208;-77.226;2023-05-23T05:36:23;6.05;;;4.18;;
80245;SDS011;69558;39.208;-77.226;2023-05-23T05:38:48;5.93;;;4.18;;
80245;SDS011;69558;39.208;-77.226;2023-05-23T05:41:15;5.90;;;3.75;;
80245;SDS011;69558;39.208;-77.226;2023-05-23T05:43:41;5.80;;;4.03;;
80245;SDS011;69558;39.208;-77.226;2023-05-23T05:46:07;5.80;;;3.88;;
80245;SDS011;69558;39.208;-77.226;2023-05-23T05:48:33;5.93;;;3.70;;
80245;SDS011;69558;39.208;-77.226;2023-05-23T05:50:59;6.30;;;3.72;;
80245;SDS011;69558;39.208;-77.226;2023-05-23T05:53:27;6.10;;;4.25;;
80245;SDS011;69558;39.208;-77.226;2023-05-23T05:55:53;5.93;;;3.83;;
80245;SDS011;69558;39.208;-77.226;2023-05-23T05:58:19;5.53;;;3.88;;
80245;SDS011;69558;39.208;-77.226;2023-05-23T06:00:46;7.18;;;4.50;;
80245;SDS011;69558;39.208;-77.226;2023-05-23T06:03:13;5.85;;;3.80;;
80245;SDS011;69558;39.208;-77.226;2023-05-23T06:05:39;5.15;;;3.63;;
80245;SDS011;69558;39.208;-77.226;2023-05-23T06:08:06;5.53;;;3.75;;
80245;SDS011;69558;39.208;-77.226;2023-05-23T06:10:32;6.55;;;4.05;;
80245;SDS011;69558;39.208;-77.226;2023-05-23T06:12:58;5.68;;;3.58;;
80245;SDS011;69558;39.208;-77.226;2023-05-23T06:15:24;6.20;;;4.28;;
80245;SDS011;69558;39.208;-77.226;2023-05-23T06:17:51;5.80;;;4.03;;
80245;SDS011;69558;39.208;-77.226;2023-05-23T06:20:17;6.18;;;4.22;;
80245;SDS011;69558;39.208;-77.226;2023-05-23T06:22:43;6.05;;;4.13;;
80245;SDS011;69558;39.208;-77.226;2023-05-23T06:25:09;6.22;;;4.13;;
80245;SDS011;69558;39.208;-77.226;2023-05-23T06:27:36;6.78;;;4.47;;
80245;SDS011;69558;39.208;-77.226;2023-05-23T06:30:05;6.15;;;4.07;;
80245;SDS011;69558;39.208;-77.226;2023-05-23T06:32:31;6.15;;;3.95;;
80245;SDS011;69558;39.208;-77.226;2023-05-23T06:34:57;6.25;;;4.05;;
80245;SDS011;69558;39.208;-77.226;2023-05-23T06:37:23;6.57;;;4.07;;
80245;SDS011;69558;39.208;-77.226;2023-05-23T06:39:49;6.90;;;4.13;;
80245;SDS011;69558;39.208;-77.226;2023-05-23T06:42:15;7.30;;;4.40;;
80245;SDS011;69558;39.208;-77.226;2023-05-23T06:44:41;6.60;;;4.70;;
80245;SDS011;69558;39.208;-77.226;2023-05-23T06:47:07;7.03;;;4.38;;
80245;SDS011;69558;39.208;-77.226;2023-05-23T06:49:33;5.90;;;4.13;;
80245;SDS011;69558;39.208;-77.226;2023-05-23T06:51:59;5.85;;;3.92;;
80245;SDS011;69558;39.208;-77.226;2023-05-23T06:54:25;5.72;;;4.05;;
80245;SDS011;69558;39.208;-77.226;2023-05-23T06:56:51;6.40;;;4.28;;
80245;SDS011;69558;39.208;-77.226;2023-05-23T06:59:18;6.35;;;4.07;;
80245;SDS011;69558;39.208;-77.226;2023-05-23T07:01:44;6.88;;;4.70;;
80245;SDS011;69558;39.208;-77.226;2023-05-23T07:04:10;7.10;;;4.60;;
80245;SDS011;69558;39.208;-77.226;2023-05-23T07:06:37;6.35;;;4.38;;
80245;SDS011;69558;39.208;-77.226;2023-05-23T07:09:04;6.72;;;3.92;;
80245;SDS011;69558;39.208;-77.226;2023-05-23T07:11:30;5.75;;;4.25;;
80245;SDS011;69558;39.208;-77.226;2023-05-23T07:13:56;5.63;;;3.90;;
80245;SDS011;69558;39.208;-77.226;2023-05-23T07:16:22;6.35;;;3.90;;
80245;SDS011;69558;39.208;-77.226;2023-05-23T07:18:47;6.30;;;4.28;;
80245;SDS011;69558;39.208;-77.226;2023-05-23T07:21:14;6.25;;;4.30;;
80245;SDS011;69558;39.208;-77.226;2023-05-23T07:23:40;6.45;;;5.15;;
80245;SDS011;69558;39.208;-77.226;2023-05-23T07:26:06;6.15;;;4.10;;
80245;SDS011;69558;39.208;-77.226;2023-05-23T07:31:00;6.88;;;4.35;;
80245;SDS011;69558;39.208;-77.226;2023-05-23T07:33:26;6.18;;;3.78;;
80245;SDS011;69558;39.208;-77.226;2023-05-23T07:35:52;6.43;;;4.35;;
80245;SDS011;69558;39.208;-77.226;2023-05-23T07:38:17;6.07;;;4.43;;
80245;SDS011;69558;39.208;-77.226;2023-05-23T07:40:44;6.82;;;4.43;;
80245;SDS011;69558;39.208;-77.226;2023-05-23T07:43:10;7.13;;;4.38;;
80245;SDS011;69558;39.208;-77.226;2023-05-23T07:45:35;6.93;;;5.18;;
80245;SDS011;69558;39.208;-77.226;2023-05-23T07:48:02;6.22;;;4.30;;
80245;SDS011;69558;39.208;-77.226;2023-05-23T07:50:28;6.75;;;4.70;;
80245;SDS011;69558;39.208;-77.226;2023-05-23T07:52:53;5.97;;;4.57;;
80245;SDS011;69558;39.208;-77.226;2023-05-23T07:55:20;7.00;;;4.53;;
80245;SDS011;69558;39.208;-77.226;2023-05-23T07:57:46;6.03;;;4.20;;
80245;SDS011;69558;39.208;-77.226;2023-05-23T08:00:12;6.22;;;4.25;;
80245;SDS011;69558;39.208;-77.226;2023-05-23T08:02:39;7.38;;;4.07;;
80245;SDS011;69558;39.208;-77.226;2023-05-23T08:05:05;6.55;;;4.32;;
80245;SDS011;69558;39.208;-77.226;2023-05-23T08:07:31;6.75;;;4.75;;
80245;SDS011;69558;39.208;-77.226;2023-05-23T08:09:57;6.43;;;4.38;;
80245;SDS011;69558;39.208;-77.226;2023-05-23T08:12:23;6.70;;;4.10;;
80245;SDS011;69558;39.208;-77.226;2023-05-23T08:14:49;6.82;;;4.55;;
80245;SDS011;69558;39.208;-77.226;2023-05-23T08:17:15;6.63;;;4.68;;
80245;SDS011;69558;39.208;-77.226;2023-05-23T08:19:40;7.10;;;4.57;;
80245;SDS011;69558;39.208;-77.226;2023-05-23T08:22:06;5.97;;;4.18;;
80245;SDS011;69558;39.208;-77.226;2023-05-23T08:24:32;7.20;;;4.65;;
80245;SDS011;69558;39.208;-77.226;2023-05-23T08:26:58;6.97;;;4.32;;
80245;SDS011;69558;39.208;-77.226;2023-05-23T08:29:24;6.50;;;4.53;;
80245;SDS011;69558;39.208;-77.226;2023-05-23T08:31:50;7.65;;;5.18;;
80245;SDS011;69558;39.208;-77.226;2023-05-23T08:34:16;7.25;;;4.72;;
80245;SDS011;69558;39.208;-77.226;2023-05-23T08:36:41;7.45;;;5.38;;
80245;SDS011;69558;39.208;-77.226;2023-05-23T08:39:07;6.93;;;4.75;;
80245;SDS011;69558;39.208;-77.226;2023-05-23T08:41:33;7.00;;;4.75;;
80245;SDS011;69558;39.208;-77.226;2023-05-23T08:44:00;6.57;;;4.75;;
80245;SDS011;69558;39.208;-77.226;2023-05-23T08:46:26;6.45;;;4.25;;
80245;SDS011;69558;39.208;-77.226;2023-05-23T08:48:52;7.30;;;4.72;;
80245;SDS011;69558;39.208;-77.226;2023-05-23T08:51:24;7.68;;;5.18;;
80245;SDS011;69558;39.208;-77.226;2023-05-23T08:53:51;6.68;;;4.60;;
80245;SDS011;69558;39.208;-77.226;2023-05-23T08:56:18;7.05;;;4.45;;
80245;SDS011;69558;39.208;-77.226;2023-05-23T08:58:44;6.80;;;4.43;;
80245;SDS011;69558;39.208;-77.226;2023-05-23T09:01:14;8.02;;;4.80;;
80245;SDS011;69558;39.208;-77.226;2023-05-23T09:03:42;6.47;;;4.47;;
80245;SDS011;69558;39.208;-77.226;2023-05-23T09:06:09;7.78;;;5.35;;
80245;SDS011;69558;39.208;-77.226;2023-05-23T09:08:36;6.72;;;4.90;;
80245;SDS011;69558;39.208;-77.226;2023-05-23T09:11:02;7.32;;;4.88;;
80245;SDS011;69558;39.208;-77.226;2023-05-23T09:13:33;6.72;;;4.78;;
80245;SDS011;69558;39.208;-77.226;2023-05-23T09:16:00;7.15;;;4.80;;
80245;SDS011;69558;39.208;-77.226;2023-05-23T09:18:35;7.40;;;5.28;;
80245;SDS011;69558;39.208;-77.226;2023-05-23T09:21:02;7.15;;;5.13;;
80245;SDS011;69558;39.208;-77.226;2023-05-23T09:23:32;7.25;;;5.00;;
80245;SDS011;69558;39.208;-77.226;2023-05-23T09:26:16;6.85;;;4.72;;
80245;SDS011;69558;39.208;-77.226;2023-05-23T09:28:42;6.65;;;4.97;;
80245;SDS011;69558;39.208;-77.226;2023-05-23T09:31:11;8.02;;;5.68;;
80245;SDS011;69558;39.208;-77.226;2023-05-23T09:33:46;6.93;;;4.72;;
80245;SDS011;69558;39.208;-77.226;2023-05-23T09:36:13;6.88;;;5.18;;
80245;SDS011;69558;39.208;-77.226;2023-05-23T09:38:40;7.22;;;5.55;;
80245;SDS011;69558;39.208;-77.226;2023-05-23T09:41:07;7.70;;;5.03;;
80245;SDS011;69558;39.208;-77.226;2023-05-23T09:43:36;7.90;;;5.20;;
80245;SDS011;69558;39.208;-77.226;2023-05-23T09:46:07;7.68;;;5.40;;
80245;SDS011;69558;39.208;-77.226;2023-05-23T09:48:34;7.35;;;5.07;;
80245;SDS011;69558;39.208;-77.226;2023-05-23T09:51:07;7.50;;;4.93;;
80245;SDS011;69558;39.208;-77.226;2023-05-23T09:53:34;8.07;;;5.03;;
80245;SDS011;69558;39.208;-77.226;2023-05-23T09:56:03;7.47;;;5.40;;
80245;SDS011;69558;39.208;-77.226;2023-05-23T09:58:32;6.72;;;5.03;;
80245;SDS011;69558;39.208;-77.226;2023-05-23T10:01:00;7.68;;;5.25;;
80245;SDS011;69558;39.208;-77.226;2023-05-23T10:03:36;7.85;;;5.60;;
80245;SDS011;69558;39.208;-77.226;2023-05-23T10:06:12;8.13;;;5.68;;
80245;SDS011;69558;39.208;-77.226;2023-05-23T10:14:04;7.25;;;5.60;;
80245;SDS011;69558;39.208;-77.226;2023-05-23T10:19:26;7.68;;;4.95;;
80245;SDS011;69558;39.208;-77.226;2023-05-23T10:22:03;7.60;;;5.78;;
80245;SDS011;69558;39.208;-77.226;2023-05-23T10:24:32;7.60;;;5.32;;
80245;SDS011;69558;39.208;-77.226;2023-05-23T10:26:59;7.80;;;5.18;;
80245;SDS011;69558;39.208;-77.226;2023-05-23T10:31:54;7.90;;;5.35;;
80245;SDS011;69558;39.208;-77.226;2023-05-23T10:34:22;7.85;;;5.80;;
80245;SDS011;69558;39.208;-77.226;2023-05-23T10:42:12;7.95;;;5.75;;
80245;SDS011;69558;39.208;-77.226;2023-05-23T10:44:44;8.05;;;5.55;;
80245;SDS011;69558;39.208;-77.226;2023-05-23T10:47:10;7.35;;;5.38;;
80245;SDS011;69558;39.208;-77.226;2023-05-23T10:49:43;7.28;;;5.28;;
80245;SDS011;69558;39.208;-77.226;2023-05-23T10:52:18;7.32;;;5.07;;
80245;SDS011;69558;39.208;-77.226;2023-05-23T10:54:51;8.68;;;5.90;;
80245;SDS011;69558;39.208;-77.226;2023-05-23T10:57:19;7.30;;;5.32;;
80245;SDS011;69558;39.208;-77.226;2023-05-23T10:59:46;7.90;;;5.50;;
80245;SDS011;69558;39.208;-77.226;2023-05-23T11:02:17;7.90;;;5.55;;
80245;SDS011;69558;39.208;-77.226;2023-05-23T11:04:44;7.70;;;5.82;;
80245;SDS011;69558;39.208;-77.226;2023-05-23T11:10:07;8.55;;;6.03;;
80245;SDS011;69558;39.208;-77.226;2023-05-23T11:12:44;8.27;;;6.45;;
80245;SDS011;69558;39.208;-77.226;2023-05-23T11:18:15;7.97;;;5.80;;
80245;SDS011;69558;39.208;-77.226;2023-05-23T11:20:33;6.30;;;4.70;;
80245;SDS011;69558;39.208;-77.226;2023-05-23T11:23:02;8.68;;;5.85;;
80245;SDS011;69558;39.208;-77.226;2023-05-23T11:25:51;8.25;;;6.13;;
80245;SDS011;69558;39.208;-77.226;2023-05-23T11:28:18;8.18;;;5.65;;
80245;SDS011;69558;39.208;-77.226;2023-05-23T11:30:48;7.70;;;5.63;;
80245;SDS011;69558;39.208;-77.226;2023-05-23T11:33:14;8.82;;;6.03;;
80245;SDS011;69558;39.208;-77.226;2023-05-23T11:35:42;8.95;;;6.30;;
80245;SDS011;69558;39.208;-77.226;2023-05-23T11:38:10;9.95;;;6.65;;
80245;SDS011;69558;39.208;-77.226;2023-05-23T11:40:39;8.30;;;6.03;;
80245;SDS011;69558;39.208;-77.226;2023-05-23T11:43:07;8.00;;;5.78;;
80245;SDS011;69558;39.208;-77.226;2023-05-23T11:45:36;8.50;;;6.22;;
80245;SDS011;69558;39.208;-77.226;2023-05-23T11:48:03;8.73;;;6.13;;
80245;SDS011;69558;39.208;-77.226;2023-05-23T11:50:30;8.75;;;6.93;;
80245;SDS011;69558;39.208;-77.226;2023-05-23T11:52:56;8.18;;;5.18;;
80245;SDS011;69558;39.208;-77.226;2023-05-23T11:55:23;9.88;;;6.13;;
80245;SDS011;69558;39.208;-77.226;2023-05-23T11:57:49;8.63;;;6.40;;
80245;SDS011;69558;39.208;-77.226;2023-05-23T12:00:16;8.27;;;5.93;;
80245;SDS011;69558;39.208;-77.226;2023-05-23T12:02:43;8.90;;;6.47;;
80245;SDS011;69558;39.208;-77.226;2023-05-23T12:05:12;8.50;;;6.40;;
80245;SDS011;69558;39.208;-77.226;2023-05-23T12:07:39;9.63;;;6.80;;
80245;SDS011;69558;39.208;-77.226;2023-05-23T12:10:07;9.25;;;6.32;;
80245;SDS011;69558;39.208;-77.226;2023-05-23T12:12:34;9.60;;;6.60;;
80245;SDS011;69558;39.208;-77.226;2023-05-23T12:15:00;8.32;;;6.18;;
80245;SDS011;69558;39.208;-77.226;2023-05-23T12:17:27;10.07;;;7.07;;
80245;SDS011;69558;39.208;-77.226;2023-05-23T12:19:53;8.25;;;6.05;;
80245;SDS011;69558;39.208;-77.226;2023-05-23T12:22:22;8.82;;;6.55;;
80245;SDS011;69558;39.208;-77.226;2023-05-23T12:24:51;9.18;;;6.25;;
80245;SDS011;69558;39.208;-77.226;2023-05-23T12:27:18;8.38;;;5.80;;
80245;SDS011;69558;39.208;-77.226;2023-05-23T12:29:50;8.30;;;6.00;;
80245;SDS011;69558;39.208;-77.226;2023-05-23T12:32:16;8.13;;;5.95;;
80245;SDS011;69558;39.208;-77.226;2023-05-23T12:34:42;9.02;;;6.18;;
80245;SDS011;69558;39.208;-77.226;2023-05-23T12:37:11;8.38;;;6.38;;
80245;SDS011;69558;39.208;-77.226;2023-05-23T12:39:38;10.30;;;6.95;;
80245;SDS011;69558;39.208;-77.226;2023-05-23T12:42:09;8.38;;;6.35;;
80245;SDS011;69558;39.208;-77.226;2023-05-23T12:44:36;9.23;;;6.50;;
80245;SDS011;69558;39.208;-77.226;2023-05-23T12:47:02;8.75;;;6.25;;
80245;SDS011;69558;39.208;-77.226;2023-05-23T12:49:28;9.10;;;6.93;;
80245;SDS011;69558;39.208;-77.226;2023-05-23T12:51:54;8.95;;;6.78;;
80245;SDS011;69558;39.208;-77.226;2023-05-23T12:54:20;8.05;;;5.93;;
80245;SDS011;69558;39.208;-77.226;2023-05-23T12:56:46;9.18;;;6.35;;
80245;SDS011;69558;39.208;-77.226;2023-05-23T12:59:11;7.85;;;5.72;;
80245;SDS011;69558;39.208;-77.226;2023-05-23T13:01:37;9.15;;;6.65;;
80245;SDS011;69558;39.208;-77.226;2023-05-23T13:04:03;8.43;;;5.95;;
80245;SDS011;69558;39.208;-77.226;2023-05-23T13:06:29;8.55;;;5.78;;
80245;SDS011;69558;39.208;-77.226;2023-05-23T13:08:55;8.20;;;6.00;;
80245;SDS011;69558;39.208;-77.226;2023-05-23T13:11:22;9.45;;;6.88;;
80245;SDS011;69558;39.208;-77.226;2023-05-23T13:13:48;9.07;;;6.38;;
80245;SDS011;69558;39.208;-77.226;2023-05-23T13:16:17;8.85;;;6.20;;
80245;SDS011;69558;39.208;-77.226;2023-05-23T13:18:43;8.63;;;6.47;;
80245;SDS011;69558;39.208;-77.226;2023-05-23T13:21:10;9.00;;;6.25;;
80245;SDS011;69558;39.208;-77.226;2023-05-23T13:23:36;9.38;;;6.82;;
80245;SDS011;69558;39.208;-77.226;2023-05-23T13:26:03;9.75;;;7.00;;
80245;SDS011;69558;39.208;-77.226;2023-05-23T13:28:31;9.07;;;6.25;;
80245;SDS011;69558;39.208;-77.226;2023-05-23T13:30:58;8.32;;;6.20;;
80245;SDS011;69558;39.208;-77.226;2023-05-23T13:33:24;9.48;;;6.60;;
80245;SDS011;69558;39.208;-77.226;2023-05-23T13:35:50;9.13;;;6.25;;
80245;SDS011;69558;39.208;-77.226;2023-05-23T13:38:17;8.70;;;5.78;;
80245;SDS011;69558;39.208;-77.226;2023-05-23T13:40:43;8.35;;;5.75;;
80245;SDS011;69558;39.208;-77.226;2023-05-23T13:43:10;8.95;;;5.93;;
80245;SDS011;69558;39.208;-77.226;2023-05-23T13:45:36;7.93;;;5.63;;
80245;SDS011;69558;39.208;-77.226;2023-05-23T13:48:02;9.07;;;6.18;;
80245;SDS011;69558;39.208;-77.226;2023-05-23T13:50:28;8.18;;;5.40;;
80245;SDS011;69558;39.208;-77.226;2023-05-23T13:52:54;9.93;;;7.07;;
80245;SDS011;69558;39.208;-77.226;2023-05-23T13:55:20;10.15;;;6.50;;
80245;SDS011;69558;39.208;-77.226;2023-05-23T13:57:46;9.73;;;6.57;;
80245;SDS011;69558;39.208;-77.226;2023-05-23T14:00:12;9.43;;;6.80;;
80245;SDS011;69558;39.208;-77.226;2023-05-23T14:02:38;9.45;;;6.38;;
80245;SDS011;69558;39.208;-77.226;2023-05-23T14:05:05;8.45;;;6.55;;
80245;SDS011;69558;39.208;-77.226;2023-05-23T14:09:58;9.77;;;7.18;;
80245;SDS011;69558;39.208;-77.226;2023-05-23T14:12:24;9.00;;;6.10;;
80245;SDS011;69558;39.208;-77.226;2023-05-23T14:14:50;9.23;;;6.80;;
80245;SDS011;69558;39.208;-77.226;2023-05-23T14:17:16;9.00;;;6.53;;
80245;SDS011;69558;39.208;-77.226;2023-05-23T14:19:42;9.85;;;6.88;;
80245;SDS011;69558;39.208;-77.226;2023-05-23T14:22:08;9.10;;;6.35;;
80245;SDS011;69558;39.208;-77.226;2023-05-23T14:24:35;9.43;;;6.47;;
80245;SDS011;69558;39.208;-77.226;2023-05-23T14:27:02;9.32;;;6.50;;
80245;SDS011;69558;39.208;-77.226;2023-05-23T14:29:28;10.35;;;6.53;;
80245;SDS011;69558;39.208;-77.226;2023-05-23T14:31:54;10.20;;;6.63;;
80245;SDS011;69558;39.208;-77.226;2023-05-23T14:34:20;9.98;;;6.82;;
80245;SDS011;69558;39.208;-77.226;2023-05-23T14:36:46;9.23;;;6.60;;
80245;SDS011;69558;39.208;-77.226;2023-05-23T14:39:12;9.05;;;6.60;;
80245;SDS011;69558;39.208;-77.226;2023-05-23T14:41:38;10.10;;;6.65;;
80245;SDS011;69558;39.208;-77.226;2023-05-23T14:44:04;9.10;;;6.80;;
80245;SDS011;69558;39.208;-77.226;2023-05-23T14:46:30;8.32;;;6.32;;
80245;SDS011;69558;39.208;-77.226;2023-05-23T14:48:56;8.63;;;6.55;;
80245;SDS011;69558;39.208;-77.226;2023-05-23T14:51:22;9.32;;;6.55;;